Time;durP1;ratioP1;P1;durP2;ratioP2;P2;SDS_P1;SDS_P2;PMS_P1;PMS_P2;Temp;Humidity;BMP_temperature;BMP_pressure;BME280_temperature;BME280_humidity;BME280_pressure;Samples;Min_cycle;Max_cycle;Signal;HPM_P1;HPM_P2
2022/06/12 00:00:46;;;;;;;9.87;3.93;;;16.80;94.80;;;;;;5122593;27;20447;-79
2022/06/12 00:03:19;;;;;;;12.20;5.30;;;16.80;94.80;;;;;;5141017;27;20513;-81
2022/06/12 00:05:50;;;;;;;11.23;5.80;;;16.70;94.80;;;;;;5142515;27;20834;-80
2022/06/12 00:08:19;;;;;;;16.03;5.17;;;16.70;94.90;;;;;;5123004;27;20437;-80
2022/06/12 00:10:50;;;;;;;8.10;4.50;;;16.60;94.90;;;;;;5141873;27;20480;-81
2022/06/12 00:13:21;;;;;;;9.87;5.20;;;16.60;95.00;;;;;;5121861;27;20526;-80
2022/06/12 00:15:49;;;;;;;9.57;5.03;;;16.50;95.00;;;;;;5140906;27;20453;-80
2022/06/12 00:18:19;;;;;;;9.63;4.80;;;16.50;95.10;;;;;;5121919;27;20446;-80
2022/06/12 00:20:48;;;;;;;10.43;5.77;;;16.50;95.20;;;;;;5140828;27;20959;-81
2022/06/12 00:23:18;;;;;;;8.53;5.93;;;16.50;95.50;;;;;;5139894;27;20442;-80
2022/06/12 00:25:46;;;;;;;13.37;5.90;;;16.40;95.30;;;;;;5120215;27;20839;-81
2022/06/12 00:28:14;;;;;;;8.67;5.90;;;16.40;95.30;;;;;;5120867;27;20525;-81
2022/06/12 00:30:43;;;;;;;14.33;5.80;;;16.40;95.40;;;;;;5139653;27;20417;-80
2022/06/12 00:33:11;;;;;;;10.47;5.50;;;16.30;95.40;;;;;;5138065;27;20401;-81
2022/06/12 00:35:40;;;;;;;9.00;5.70;;;16.30;95.50;;;;;;5119983;27;20444;-80
2022/06/12 00:38:08;;;;;;;8.93;5.43;;;16.30;95.60;;;;;;5120141;27;20443;-81
2022/06/12 00:40:37;;;;;;;12.30;5.73;;;16.30;95.60;;;;;;5121674;27;20425;-80
2022/06/12 00:43:07;;;;;;;14.00;7.03;;;16.20;95.60;;;;;;5120332;27;20417;-80
2022/06/12 00:45:40;;;;;;;9.20;4.87;;;16.20;95.70;;;;;;5119511;27;20535;-80
2022/06/12 00:48:11;;;;;;;8.03;5.60;;;16.20;95.70;;;;;;5118720;27;20459;-79
2022/06/12 00:50:46;;;;;;;8.60;5.70;;;16.10;95.80;;;;;;5118432;27;20427;-80
2022/06/12 00:53:18;;;;;;;11.67;5.13;;;16.10;95.80;;;;;;5118825;27;20414;-79
2022/06/12 00:55:56;;;;;;;14.20;5.03;;;16.10;95.90;;;;;;5118931;27;20447;-79
2022/06/12 00:58:26;;;;;;;11.10;5.40;;;16.00;96.20;;;;;;5118341;27;20479;-78
2022/06/12 01:00:55;;;;;;;8.87;5.40;;;16.00;95.90;;;;;;5118606;27;20488;-79
2022/06/12 01:03:25;;;;;;;6.70;5.30;;;16.00;95.90;;;;;;5119507;27;20432;-79
2022/06/12 01:08:41;;;;;;;8.40;5.33;;;15.90;96.10;;;;;;5141090;27;20522;-80
2022/06/12 01:11:14;;;;;;;11.97;5.53;;;15.80;96.10;;;;;;5122515;27;20489;-79
2022/06/12 01:13:45;;;;;;;14.13;6.17;;;15.80;96.20;;;;;;5122409;27;20794;-78
2022/06/12 01:16:16;;;;;;;10.60;6.03;;;15.80;96.20;;;;;;5142430;27;20512;-79
2022/06/12 01:18:48;;;;;;;10.50;6.27;;;15.70;96.20;;;;;;5132466;27;20431;-80
2022/06/12 01:21:56;;;;;;;11.33;6.23;;;15.70;96.50;;;;;;5146217;27;20421;-82
2022/06/12 01:24:41;;;;;;;11.10;5.70;;;15.70;96.30;;;;;;5149161;27;20483;-80
2022/06/12 01:27:34;;;;;;;12.27;6.00;;;15.60;96.30;;;;;;5131108;27;20405;-82
2022/06/12 01:30:09;;;;;;;10.57;5.67;;;15.60;96.30;;;;;;5144841;27;20421;-81
2022/06/12 01:32:44;;;;;;;8.13;5.17;;;15.50;96.30;;;;;;5123603;27;20519;-81
2022/06/12 01:35:20;;;;;;;11.03;6.23;;;15.50;96.40;;;;;;5121975;27;20465;-81
2022/06/12 01:37:57;;;;;;;9.37;6.13;;;15.50;96.40;;;;;;5123236;27;20449;-81
2022/06/12 01:40:33;;;;;;;9.97;5.97;;;15.40;96.50;;;;;;5140447;27;20399;-80
2022/06/12 01:43:11;;;;;;;10.80;6.77;;;15.40;96.50;;;;;;5138626;27;20411;-81
2022/06/12 01:45:46;;;;;;;8.43;7.00;;;15.30;96.50;;;;;;5138607;27;20535;-82
2022/06/12 01:48:27;;;;;;;11.70;6.63;;;15.30;96.50;;;;;;5120795;27;20740;-80
2022/06/12 01:51:06;;;;;;;13.47;5.53;;;15.30;96.50;;;;;;5120961;28;20507;-80
2022/06/12 01:53:41;;;;;;;13.17;7.00;;;15.20;96.50;;;;;;5138689;27;20466;-78
2022/06/12 01:56:18;;;;;;;12.13;6.93;;;15.20;96.60;;;;;;5119715;27;20557;-80
2022/06/12 01:58:55;;;;;;;10.90;6.20;;;15.20;96.60;;;;;;5119320;27;20508;-80
2022/06/12 02:01:33;;;;;;;12.57;5.87;;;15.10;96.60;;;;;;5119066;28;20799;-79
2022/06/12 02:04:08;;;;;;;11.23;6.07;;;15.10;96.60;;;;;;5118476;28;20436;-79
2022/06/12 02:06:42;;;;;;;9.23;5.60;;;15.10;96.70;;;;;;5137899;28;20469;-79
2022/06/12 02:09:15;;;;;;;11.57;6.30;;;15.00;96.70;;;;;;5138073;28;20407;-79
2022/06/12 02:14:39;;;;;;;10.83;6.37;;;14.90;96.70;;;;;;5118466;28;20516;-79
2022/06/12 02:17:13;;;;;;;8.87;5.27;;;14.90;96.80;;;;;;5137828;28;20453;-79
2022/06/12 02:19:44;;;;;;;15.60;5.63;;;14.90;96.90;;;;;;5137149;28;20518;-80
2022/06/12 02:22:17;;;;;;;9.43;5.80;;;14.80;96.90;;;;;;5118425;28;20533;-79
2022/06/12 02:24:49;;;;;;;8.63;5.57;;;14.80;96.90;;;;;;5121987;27;20533;-79
2022/06/12 02:27:22;;;;;;;9.23;5.27;;;14.80;96.90;;;;;;5142187;27;20480;-80
2022/06/12 02:29:54;;;;;;;11.83;5.97;;;14.70;96.90;;;;;;5141351;27;20389;-79
2022/06/12 02:32:28;;;;;;;10.67;5.23;;;14.70;97.00;;;;;;5122645;27;20891;-81
2022/06/12 02:35:01;;;;;;;7.57;4.90;;;14.70;97.00;;;;;;5122628;27;20473;-80
2022/06/12 02:37:36;;;;;;;9.10;6.03;;;14.60;97.00;;;;;;5122549;27;20460;-79
2022/06/12 02:40:12;;;;;;;7.97;6.17;;;14.60;97.10;;;;;;5122145;27;20438;-79
2022/06/12 02:42:44;;;;;;;9.57;5.10;;;14.60;97.10;;;;;;5141719;27;20396;-79
2022/06/12 02:45:18;;;;;;;10.80;5.90;;;14.60;97.20;;;;;;5122570;27;20448;-80
2022/06/12 02:47:49;;;;;;;9.17;5.50;;;14.50;97.20;;;;;;5141414;27;20434;-80
2022/06/12 02:50:21;;;;;;;9.87;5.00;;;14.50;97.30;;;;;;5122256;27;20445;-79
2022/06/12 02:53:02;;;;;;;6.87;5.50;;;14.50;97.30;;;;;;5122388;27;20513;-78
2022/06/12 02:55:38;;;;;;;9.83;5.30;;;14.50;97.40;;;;;;5122139;27;20462;-79
2022/06/12 02:58:17;;;;;;;9.07;5.70;;;14.40;97.40;;;;;;5140968;27;20428;-81
2022/06/12 03:00:52;;;;;;;9.33;5.93;;;14.40;97.50;;;;;;5121431;27;20462;-79
2022/06/12 03:03:26;;;;;;;14.30;6.10;;;14.40;97.60;;;;;;5121495;27;20901;-78
2022/06/12 03:05:58;;;;;;;12.37;6.00;;;14.30;97.60;;;;;;5121401;27;21057;-79
2022/06/12 03:08:31;;;;;;;9.73;5.70;;;14.30;97.60;;;;;;5122168;27;20491;-79
2022/06/12 03:11:02;;;;;;;11.03;5.13;;;14.30;97.70;;;;;;5123311;27;20449;-79
2022/06/12 03:13:33;;;;;;;7.33;5.00;;;14.30;97.80;;;;;;5124859;27;20448;-79
2022/06/12 03:16:09;;;;;;;10.53;6.03;;;14.30;97.80;;;;;;5126105;27;20496;-80
2022/06/12 03:18:43;;;;;;;9.07;5.43;;;14.20;97.80;;;;;;5144386;27;20414;-79
2022/06/12 03:21:24;;;;;;;13.83;5.13;;;14.20;97.90;;;;;;5128338;27;20989;-79
2022/06/12 03:24:05;;;;;;;8.17;5.40;;;14.20;98.00;;;;;;5145272;27;20427;-79
2022/06/12 03:26:42;;;;;;;8.57;5.07;;;14.20;98.00;;;;;;5125312;27;20462;-81
2022/06/12 03:29:21;;;;;;;8.63;5.07;;;14.20;98.10;;;;;;5125402;27;20510;-80
2022/06/12 03:31:58;;;;;;;11.47;5.67;;;14.20;98.20;;;;;;5125447;27;20541;-79
2022/06/12 03:34:36;;;;;;;13.90;6.10;;;14.20;98.20;;;;;;5143241;27;20418;-80
2022/06/12 03:37:09;;;;;;;11.73;5.10;;;14.20;98.30;;;;;;5144465;27;20422;-80
2022/06/12 03:39:43;;;;;;;11.87;5.40;;;14.10;98.60;;;;;;5124394;27;20491;-79
2022/06/12 03:42:19;;;;;;;11.80;6.37;;;14.10;98.40;;;;;;5145188;27;20426;-80
2022/06/12 03:44:58;;;;;;;9.00;5.50;;;14.10;98.50;;;;;;5129413;27;20470;-80
2022/06/12 03:47:33;;;;;;;8.90;5.00;;;14.10;98.70;;;;;;5126209;27;20569;-79
2022/06/12 03:50:10;;;;;;;9.53;5.20;;;14.10;98.80;;;;;;5127411;27;20448;-79
2022/06/12 03:52:46;;;;;;;15.33;6.70;;;14.10;98.90;;;;;;5146852;27;20430;-79
2022/06/12 03:57:50;;;;;;;13.63;6.03;;;14.10;99.10;;;;;;5126061;27;20461;-79
2022/06/12 03:58:18;;;;;;;13.03;6.73;;;14.10;99.20;;;;;;5146923;27;20450;-80
2022/06/12 04:00:50;;;;;;;8.20;6.70;;;14.10;99.30;;;;;;5127985;27;20499;-80
2022/06/12 04:03:23;;;;;;;10.87;5.53;;;14.00;99.40;;;;;;5147450;27;20426;-80
2022/06/12 04:05:57;;;;;;;9.93;6.40;;;14.10;99.60;;;;;;5127897;27;20469;-79
2022/06/12 04:08:35;;;;;;;10.73;5.93;;;14.10;99.70;;;;;;5126778;27;20826;-79
2022/06/12 04:11:04;;;;;;;10.77;6.53;;;14.10;99.80;;;;;;5127036;27;20533;-78
2022/06/12 04:13:34;;;;;;;10.53;6.80;;;14.10;99.80;;;;;;5125260;27;21004;-78
2022/06/12 04:16:06;;;;;;;13.77;5.90;;;14.20;99.90;;;;;;5123444;27;20462;-80
2022/06/12 04:18:35;;;;;;;9.83;6.07;;;14.20;99.90;;;;;;5143230;27;20471;-80
2022/06/12 04:21:08;;;;;;;10.50;5.67;;;14.20;99.90;;;;;;5123026;27;21042;-81
2022/06/12 04:23:42;;;;;;;9.73;6.23;;;14.20;99.90;;;;;;5126072;27;20438;-81
2022/06/12 04:26:18;;;;;;;11.00;6.00;;;14.20;99.90;;;;;;5127813;27;20869;-78
2022/06/12 04:28:55;;;;;;;14.70;7.80;;;14.20;99.90;;;;;;5128798;27;20495;-78
2022/06/12 04:31:23;;;;;;;12.90;7.43;;;14.20;99.90;;;;;;5127980;27;20466;-79
2022/06/12 04:34:06;;;;;;;14.57;6.60;;;14.30;99.90;;;;;;5129171;27;20509;-80
2022/06/12 04:36:36;;;;;;;10.57;5.83;;;14.30;99.90;;;;;;5125309;27;20503;-79
2022/06/12 04:39:05;;;;;;;7.87;5.17;;;14.30;99.90;;;;;;5146806;27;20434;-81
2022/06/12 04:41:36;;;;;;;10.13;5.80;;;14.30;99.90;;;;;;5128559;27;21005;-79
2022/06/12 04:44:04;;;;;;;10.50;6.60;;;14.30;99.90;;;;;;5147881;27;20491;-79
2022/06/12 04:46:34;;;;;;;10.90;6.40;;;14.30;99.90;;;;;;5125379;27;20539;-79
2022/06/12 04:49:03;;;;;;;12.50;5.80;;;14.30;99.90;;;;;;5129115;27;20449;-79
2022/06/12 04:51:33;;;;;;;8.10;5.80;;;14.40;99.90;;;;;;5141196;27;20844;-79
2022/06/12 04:54:02;;;;;;;10.27;5.70;;;14.40;99.90;;;;;;5145905;27;20446;-79
2022/06/12 04:56:33;;;;;;;10.63;6.30;;;14.40;99.90;;;;;;5123764;27;20441;-78
2022/06/12 04:59:02;;;;;;;12.03;5.60;;;14.40;99.90;;;;;;5141965;27;20426;-79
2022/06/12 05:01:32;;;;;;;9.10;5.43;;;14.50;99.90;;;;;;5123117;27;20796;-79
2022/06/12 05:04:01;;;;;;;11.43;5.43;;;14.50;99.90;;;;;;5121801;27;20503;-79
2022/06/12 05:06:31;;;;;;;9.53;5.50;;;14.60;99.90;;;;;;5122900;27;20488;-79
2022/06/12 05:09:00;;;;;;;11.17;6.07;;;14.60;99.90;;;;;;5122083;27;20473;-79
2022/06/12 05:11:30;;;;;;;12.03;6.27;;;14.60;99.90;;;;;;5140320;27;20442;-78
2022/06/12 05:13:58;;;;;;;11.73;5.80;;;14.70;99.90;;;;;;5122562;27;20447;-79
2022/06/12 05:16:42;;;;;;;15.23;5.80;;;14.70;99.90;;;;;;5120681;27;20912;-79
2022/06/12 05:19:13;;;;;;;10.50;6.07;;;14.70;99.90;;;;;;5126015;27;20521;-79
2022/06/12 05:21:42;;;;;;;11.30;5.57;;;14.80;99.90;;;;;;5125913;27;20798;-79
2022/06/12 05:24:11;;;;;;;14.80;6.00;;;14.80;99.90;;;;;;5141784;27;20437;-79
2022/06/12 05:26:42;;;;;;;14.57;6.63;;;14.90;99.90;;;;;;5120155;27;20440;-78
2022/06/12 05:29:15;;;;;;;11.77;6.20;;;15.00;99.90;;;;;;5122937;27;20461;-79
2022/06/12 05:31:44;;;;;;;9.93;5.57;;;15.10;99.90;;;;;;5140131;27;20422;-80
2022/06/12 05:34:12;;;;;;;7.20;5.00;;;15.20;99.90;;;;;;5137020;27;20434;-79
2022/06/12 05:36:41;;;;;;;6.30;4.73;;;15.30;99.90;;;;;;5137877;27;20466;-80
2022/06/12 05:39:09;;;;;;;11.00;5.00;;;15.40;99.90;;;;;;5136650;27;20484;-80
2022/06/12 05:41:38;;;;;;;11.70;5.03;;;15.60;99.90;;;;;;5120182;27;20417;-78
2022/06/12 05:44:08;;;;;;;14.63;5.80;;;15.80;99.90;;;;;;5119822;27;20815;-80
2022/06/12 05:46:36;;;;;;;14.00;5.33;;;16.00;99.90;;;;;;5120501;27;20433;-78
2022/06/12 05:49:05;;;;;;;11.47;4.90;;;16.30;99.90;;;;;;5137781;27;20522;-80
2022/06/12 05:51:34;;;;;;;9.30;5.40;;;16.60;99.90;;;;;;5121095;27;20417;-80
2022/06/12 05:54:10;;;;;;;8.33;4.40;;;16.80;99.90;;;;;;5118541;27;20438;-79
2022/06/12 05:56:39;;;;;;;13.10;4.80;;;17.10;99.90;;;;;;5122100;27;20473;-79
2022/06/12 05:59:09;;;;;;;11.33;4.77;;;17.40;99.90;;;;;;5124302;27;20438;-80
2022/06/12 06:01:39;;;;;;;13.57;7.10;;;17.70;99.90;;;;;;5139977;27;20425;-79
2022/06/12 06:04:08;;;;;;;13.10;6.43;;;18.00;99.90;;;;;;5119165;28;20442;-80
2022/06/12 06:06:43;;;;;;;13.20;5.77;;;18.30;99.90;;;;;;5138745;28;20959;-79
2022/06/12 06:09:11;;;;;;;10.60;5.33;;;18.60;99.90;;;;;;5118795;28;20462;-80
2022/06/12 06:11:40;;;;;;;10.20;5.90;;;18.90;99.90;;;;;;5120836;28;20443;-80
2022/06/12 06:14:09;;;;;;;9.43;4.80;;;19.20;99.90;;;;;;5123035;28;20450;-78
2022/06/12 06:16:39;;;;;;;10.93;5.43;;;19.50;99.90;;;;;;5118594;28;20557;-80
2022/06/12 06:19:09;;;;;;;9.40;3.87;;;19.70;99.90;;;;;;5118276;28;20951;-78
2022/06/12 06:21:39;;;;;;;11.93;5.10;;;20.00;99.90;;;;;;5117648;28;20450;-80
2022/06/12 06:24:08;;;;;;;11.27;5.23;;;20.20;99.90;;;;;;5118397;28;20781;-79
2022/06/12 06:26:36;;;;;;;11.57;4.60;;;20.50;99.90;;;;;;5118460;28;20803;-78
2022/06/12 06:29:05;;;;;;;12.70;4.87;;;20.70;99.90;;;;;;5117647;28;20474;-80
2022/06/12 06:31:34;;;;;;;11.10;4.27;;;21.00;99.90;;;;;;5139659;28;20437;-81
2022/06/12 06:34:03;;;;;;;10.83;5.13;;;21.20;99.90;;;;;;5139122;28;20454;-81
2022/06/12 06:36:32;;;;;;;9.80;5.10;;;21.40;99.90;;;;;;5139434;28;20510;-82
2022/06/12 06:39:00;;;;;;;11.30;5.37;;;21.60;99.90;;;;;;5121089;28;20532;-82
2022/06/12 06:41:29;;;;;;;10.93;4.60;;;21.80;99.90;;;;;;5120041;28;20948;-78
2022/06/12 06:46:45;;;;;;;10.53;4.00;;;22.20;99.90;;;;;;5118895;28;21101;-79
2022/06/12 06:49:19;;;;;;;10.10;4.57;;;22.50;99.90;;;;;;5119927;28;20493;-80
2022/06/12 06:51:49;;;;;;;11.07;6.13;;;22.60;99.90;;;;;;5120142;28;20442;-79
2022/06/12 06:54:18;;;;;;;6.40;3.30;;;22.80;99.90;;;;;;5138929;28;20444;-78
2022/06/12 06:56:46;;;;;;;10.10;3.57;;;23.00;99.40;;;;;;5138216;28;20454;-78
2022/06/12 06:59:14;;;;;;;6.40;4.10;;;23.10;99.20;;;;;;5137909;28;20998;-83
2022/06/12 07:01:44;;;;;;;7.07;4.20;;;23.30;98.90;;;;;;5137395;28;20454;-82
2022/06/12 07:04:13;;;;;;;9.80;4.20;;;23.40;98.50;;;;;;5120222;28;20853;-82
2022/06/12 07:06:42;;;;;;;10.63;4.47;;;23.50;98.20;;;;;;5118985;28;20812;-78
2022/06/12 07:09:10;;;;;;;11.83;3.40;;;23.70;97.90;;;;;;5119200;27;20465;-79
2022/06/12 07:11:38;;;;;;;7.03;4.20;;;23.80;97.60;;;;;;5140377;27;20462;-78
2022/06/12 07:14:06;;;;;;;7.50;3.30;;;23.90;97.20;;;;;;5141694;27;20446;-78
2022/06/12 07:16:36;;;;;;;9.77;3.47;;;24.00;96.90;;;;;;5122809;27;20476;-78
2022/06/12 07:19:06;;;;;;;4.03;2.70;;;24.20;96.70;;;;;;5141254;27;20499;-79
2022/06/12 07:21:35;;;;;;;7.40;3.20;;;24.30;96.30;;;;;;5139052;27;20479;-77
2022/06/12 07:24:04;;;;;;;6.33;2.80;;;24.50;95.70;;;;;;5139376;27;20437;-80
2022/06/12 07:26:35;;;;;;;4.17;2.10;;;24.50;95.20;;;;;;5121528;27;20466;-80
2022/06/12 07:29:04;;;;;;;6.47;3.03;;;24.50;94.70;;;;;;5142545;27;20501;-80
2022/06/12 07:31:34;;;;;;;6.93;3.30;;;24.50;94.30;;;;;;5124280;27;20833;-78
2022/06/12 07:34:02;;;;;;;6.43;3.07;;;24.50;93.90;;;;;;5140513;27;20439;-81
2022/06/12 07:36:37;;;;;;;5.10;2.77;;;24.50;93.80;;;;;;5140181;27;20904;-81
2022/06/12 07:39:08;;;;;;;6.90;2.90;;;24.50;93.60;;;;;;5139462;27;20450;-77
2022/06/12 07:41:47;;;;;;;4.13;1.97;;;24.60;93.50;;;;;;5139423;27;20465;-79
2022/06/12 07:44:19;;;;;;;4.93;2.37;;;24.70;93.10;;;;;;5141355;27;20415;-78
2022/06/12 07:46:52;;;;;;;7.20;2.10;;;24.70;92.60;;;;;;5140984;27;20455;-79
2022/06/12 07:49:22;;;;;;;7.47;2.70;;;24.80;92.20;;;;;;5123295;27;20465;-78
2022/06/12 07:51:52;;;;;;;4.10;2.20;;;24.90;92.10;;;;;;5142760;27;20430;-79
2022/06/12 07:54:21;;;;;;;5.33;2.10;;;24.90;91.50;;;;;;5124603;27;20805;-79
2022/06/12 07:56:50;;;;;;;2.77;1.63;;;24.90;91.30;;;;;;5140568;27;20974;-77
2022/06/12 07:59:18;;;;;;;3.60;1.50;;;24.90;90.80;;;;;;5122791;27;20943;-78
2022/06/12 08:01:47;;;;;;;4.33;2.20;;;25.00;90.70;;;;;;5140162;27;20447;-80
2022/06/12 08:04:15;;;;;;;4.60;2.27;;;24.90;90.50;;;;;;5142727;27;20442;-80
2022/06/12 08:06:43;;;;;;;5.10;2.00;;;24.90;90.30;;;;;;5141043;27;20974;-78
2022/06/12 08:09:13;;;;;;;4.33;1.90;;;24.90;90.10;;;;;;5124477;27;20466;-77
2022/06/12 08:11:45;;;;;;;7.43;2.00;;;24.90;90.00;;;;;;5123950;27;20806;-78
2022/06/12 08:14:16;;;;;;;4.47;2.30;;;24.90;89.80;;;;;;5141490;27;20446;-78
2022/06/12 08:16:44;;;;;;;3.40;2.20;;;24.80;89.60;;;;;;5124593;27;20502;-79
2022/06/12 08:22:03;;;;;;;3.30;1.60;;;24.70;89.60;;;;;;5122843;27;20438;-78
2022/06/12 08:24:34;;;;;;;5.40;2.03;;;24.70;89.20;;;;;;5123685;27;20556;-78
2022/06/12 08:27:02;;;;;;;5.60;1.50;;;24.70;89.10;;;;;;5139495;27;20438;-79
2022/06/12 08:29:31;;;;;;;3.33;1.90;;;24.80;89.10;;;;;;5140183;27;20498;-77
2022/06/12 08:32:02;;;;;;;5.60;1.97;;;24.90;89.20;;;;;;5126029;27;20446;-80
2022/06/12 08:34:39;;;;;;;7.60;2.13;;;24.90;89.00;;;;;;5125392;27;20486;-79
2022/06/12 08:37:10;;;;;;;5.67;2.23;;;25.00;88.60;;;;;;5125677;27;20530;-79
2022/06/12 08:39:40;;;;;;;4.73;2.37;;;25.00;88.40;;;;;;5122408;27;20483;-79
2022/06/12 08:42:13;;;;;;;3.70;1.53;;;25.00;88.20;;;;;;5139265;27;20451;-78
2022/06/12 08:44:49;;;;;;;4.90;1.97;;;25.10;87.50;;;;;;5138248;27;20423;-78
2022/06/12 08:47:25;;;;;;;4.83;2.13;;;25.10;87.10;;;;;;5140321;27;20454;-79
2022/06/12 08:50:03;;;;;;;5.03;1.87;;;25.20;87.00;;;;;;5120804;27;21029;-79
2022/06/12 08:52:37;;;;;;;6.17;1.97;;;25.20;86.70;;;;;;5138848;27;20422;-77
2022/06/12 08:55:13;;;;;;;3.33;1.90;;;25.10;86.70;;;;;;5140397;27;20454;-79
2022/06/12 08:57:51;;;;;;;6.17;1.93;;;25.20;86.90;;;;;;5123909;27;20438;-80
2022/06/12 09:00:22;;;;;;;4.50;1.90;;;25.20;86.90;;;;;;5124581;27;20891;-80
2022/06/12 09:02:51;;;;;;;3.90;2.20;;;25.30;86.80;;;;;;5123283;27;20450;-79
2022/06/12 09:05:26;;;;;;;8.33;2.53;;;25.40;86.60;;;;;;5123497;27;20508;-77
2022/06/12 09:08:00;;;;;;;4.17;1.70;;;25.50;86.20;;;;;;5139523;27;20407;-78
2022/06/12 09:10:37;;;;;;;6.93;2.00;;;25.50;86.10;;;;;;5140208;27;20457;-78
2022/06/12 09:13:15;;;;;;;5.23;2.03;;;25.60;85.70;;;;;;5120843;27;20461;-78
2022/06/12 09:15:50;;;;;;;6.13;1.80;;;25.50;85.10;;;;;;5121898;27;21024;-84
2022/06/12 09:18:30;;;;;;;5.43;2.40;;;25.50;84.90;;;;;;5120385;27;20495;-83
2022/06/12 09:21:09;;;;;;;4.57;2.13;;;25.50;84.90;;;;;;5139454;27;20763;-84
2022/06/12 09:23:49;;;;;;;5.80;2.57;;;25.60;85.30;;;;;;5121421;27;20434;-81
2022/06/12 09:26:26;;;;;;;4.47;2.27;;;25.60;84.80;;;;;;5140133;27;20454;-83
2022/06/12 09:29:04;;;;;;;6.87;2.37;;;25.50;84.80;;;;;;5120337;27;20448;-82
2022/06/12 09:31:41;;;;;;;6.60;1.83;;;25.50;84.80;;;;;;5121052;27;20487;-82
2022/06/12 09:34:21;;;;;;;6.53;2.00;;;25.50;84.90;;;;;;5121626;27;20478;-83
2022/06/12 09:37:01;;;;;;;8.63;3.17;;;25.60;84.70;;;;;;5121913;27;20532;-83
2022/06/12 09:40:00;;;;;;;6.90;2.50;;;25.60;84.60;;;;;;5138614;27;20466;-82
2022/06/12 09:42:40;;;;;;;6.37;2.40;;;25.60;84.30;;;;;;5120739;27;20876;-82
2022/06/12 09:45:18;;;;;;;7.37;2.60;;;25.60;84.60;;;;;;5139348;27;20487;-81
2022/06/12 09:47:51;;;;;;;4.27;2.17;;;25.60;84.60;;;;;;5120644;27;20458;-84
2022/06/12 09:50:32;;;;;;;5.17;2.07;;;25.60;84.20;;;;;;5139697;27;20454;-82
2022/06/12 09:53:27;;;;;;;5.20;1.90;;;25.60;84.20;;;;;;5122224;27;20495;-84
2022/06/12 09:56:00;;;;;;;3.30;1.70;;;25.50;84.10;;;;;;5122128;27;20474;-83
2022/06/12 09:58:36;;;;;;;4.57;1.90;;;25.50;84.40;;;;;;5140330;27;20422;-83
2022/06/12 10:01:10;;;;;;;4.33;1.90;;;25.50;84.50;;;;;;5121788;28;20485;-83
2022/06/12 10:03:43;;;;;;;4.60;2.07;;;25.50;84.10;;;;;;5120829;28;20805;-84
2022/06/12 10:06:22;;;;;;;4.40;2.00;;;25.60;83.90;;;;;;5119903;28;20523;-83
2022/06/12 10:08:55;;;;;;;5.57;2.53;;;25.50;83.70;;;;;;5119769;28;20854;-84
2022/06/12 10:11:29;;;;;;;4.27;2.30;;;25.50;84.00;;;;;;5120177;28;20519;-83
2022/06/12 10:14:05;;;;;;;4.23;2.43;;;25.50;84.00;;;;;;5139452;28;20449;-84
2022/06/12 10:16:39;;;;;;;6.83;2.80;;;25.50;84.00;;;;;;5120385;28;20966;-83
2022/06/12 10:19:33;;;;;;;6.30;2.30;;;25.50;84.00;;;;;;5121259;28;20438;-83
2022/06/12 10:22:11;;;;;;;6.30;2.37;;;25.60;84.00;;;;;;5121423;28;20446;-82
2022/06/12 10:24:39;;;;;;;5.93;2.70;;;25.50;83.70;;;;;;5138673;28;20457;-82
2022/06/12 10:27:12;;;;;;;8.40;2.60;;;25.50;83.70;;;;;;5120274;28;20453;-83
2022/06/12 10:29:46;;;;;;;7.03;3.07;;;25.60;83.70;;;;;;5122011;28;20523;-83
2022/06/12 10:32:17;;;;;;;6.47;2.33;;;25.60;83.80;;;;;;5119644;28;20863;-84
2022/06/12 10:34:45;;;;;;;7.40;2.40;;;25.60;83.70;;;;;;5120099;28;20446;-83
2022/06/12 10:37:19;;;;;;;7.17;2.93;;;25.70;84.00;;;;;;5120385;28;20445;-83
2022/06/12 10:40:01;;;;;;;5.10;1.97;;;25.80;83.80;;;;;;5121558;28;20904;-83
2022/06/12 10:42:33;;;;;;;5.97;2.40;;;25.90;83.70;;;;;;5122384;28;20462;-83
2022/06/12 10:45:03;;;;;;;7.47;2.57;;;26.00;82.90;;;;;;5125232;27;20990;-82
2022/06/12 10:47:43;;;;;;;6.97;2.43;;;26.00;82.00;;;;;;5127164;27;20464;-84
2022/06/12 10:50:22;;;;;;;6.07;2.10;;;26.00;82.30;;;;;;5128116;27;20466;-82
2022/06/12 10:53:00;;;;;;;7.27;2.80;;;26.00;82.40;;;;;;5124271;27;20438;-81
2022/06/12 10:55:57;;;;;;;8.13;2.50;;;25.90;82.60;;;;;;5124393;27;20481;-82
2022/06/12 10:59:09;;;;;;;4.83;2.30;;;25.90;82.30;;;;;;5124134;27;20943;-81
2022/06/12 11:01:52;;;;;;;4.47;2.50;;;25.80;81.90;;;;;;5143901;27;20442;-80
2022/06/12 11:04:36;;;;;;;5.83;2.20;;;25.70;81.70;;;;;;5145139;27;20453;-84
2022/06/12 11:07:17;;;;;;;6.47;2.63;;;25.60;82.00;;;;;;5126692;27;20503;-84
2022/06/12 11:09:58;;;;;;;6.67;2.40;;;25.60;82.30;;;;;;5144535;27;20437;-86
2022/06/12 11:12:41;;;;;;;5.67;2.10;;;25.70;82.30;;;;;;5143399;27;20440;-81
2022/06/12 11:15:28;;;;;;;6.60;2.70;;;25.80;81.60;;;;;;5124263;27;20465;-83
2022/06/12 11:18:05;;;;;;;5.40;2.53;;;25.70;81.80;;;;;;5141398;27;20414;-81
2022/06/12 11:20:46;;;;;;;5.53;2.50;;;25.60;82.20;;;;;;5142457;27;20411;-84
2022/06/12 11:23:50;;;;;;;5.60;2.30;;;25.50;82.50;;;;;;5123524;27;20526;-85
2022/06/12 11:26:39;;;;;;;4.70;2.43;;;25.60;82.60;;;;;;5143115;27;20462;-82
2022/06/12 11:29:20;;;;;;;3.70;1.97;;;25.70;82.30;;;;;;5123856;27;20543;-80
2022/06/12 11:31:58;;;;;;;7.07;2.60;;;25.80;82.50;;;;;;5158757;27;20461;-82
2022/06/12 11:34:43;;;;;;;5.23;2.80;;;25.90;82.50;;;;;;5145331;27;20429;-81
2022/06/12 11:37:34;;;;;;;5.27;2.43;;;26.00;82.30;;;;;;5146203;27;20445;-78
2022/06/12 11:40:12;;;;;;;5.60;2.20;;;25.90;81.90;;;;;;5145793;27;20501;-80
2022/06/12 11:42:53;;;;;;;5.30;2.43;;;25.90;81.40;;;;;;5146588;27;20501;-83
2022/06/12 11:45:53;;;;;;;5.50;2.70;;;26.00;81.60;;;;;;5147344;27;20477;-80
2022/06/12 11:48:47;;;;;;;6.30;4.10;;;26.00;81.60;;;;;;5144452;27;20452;-78
2022/06/12 11:51:27;;;;;;;4.20;2.37;;;26.00;81.30;;;;;;5162268;27;20476;-77
2022/06/12 11:54:09;;;;;;;4.17;2.40;;;25.90;80.70;;;;;;5162396;27;20835;-79
2022/06/12 11:56:46;;;;;;;5.33;2.40;;;25.70;80.20;;;;;;5121496;27;20545;-79
2022/06/12 11:59:26;;;;;;;6.17;3.13;;;25.50;80.30;;;;;;5140755;27;20488;-77
2022/06/12 12:02:01;;;;;;;5.30;2.80;;;25.30;80.20;;;;;;5139050;27;20446;-78
2022/06/12 12:05:01;;;;;;;6.03;2.63;;;25.20;80.70;;;;;;5124970;27;20437;-78
2022/06/12 12:07:44;;;;;;;6.37;2.93;;;25.10;81.00;;;;;;5131754;27;20982;-81
2022/06/12 12:10:29;;;;;;;8.00;2.80;;;24.90;81.30;;;;;;5144313;27;20471;-80
2022/06/12 12:13:02;;;;;;;5.30;2.50;;;24.80;81.40;;;;;;5127325;27;20435;-79
2022/06/12 12:15:35;;;;;;;4.83;2.27;;;24.70;81.30;;;;;;5145667;27;20461;-80
2022/06/12 12:18:08;;;;;;;5.70;3.40;;;24.70;81.20;;;;;;5125299;27;20458;-77
2022/06/12 12:20:41;;;;;;;7.27;2.97;;;24.60;81.20;;;;;;5124131;27;20446;-79
2022/06/12 12:23:14;;;;;;;6.97;2.80;;;24.60;81.20;;;;;;5124587;27;20466;-78
2022/06/12 12:25:49;;;;;;;6.00;2.90;;;24.60;81.20;;;;;;5142247;27;20458;-81
2022/06/12 12:28:23;;;;;;;4.10;1.97;;;24.60;81.10;;;;;;5139212;27;20427;-77
2022/06/12 12:30:54;;;;;;;4.10;2.63;;;24.70;80.70;;;;;;5122254;27;20569;-78
2022/06/12 12:33:22;;;;;;;4.37;2.17;;;24.80;80.40;;;;;;5140693;27;20426;-80
2022/06/12 12:41:42;;;;;;;5.47;2.40;;;25.10;80.10;;;;;;5142031;27;20469;-83
2022/06/12 12:44:13;;;;;;;4.67;2.27;;;25.10;79.70;;;;;;5125348;27;20477;-84
2022/06/12 12:46:48;;;;;;;5.30;2.60;;;25.10;79.20;;;;;;5124714;27;20470;-84
2022/06/12 12:49:25;;;;;;;4.47;2.97;;;25.20;79.20;;;;;;5141492;27;20426;-81
2022/06/12 12:52:09;;;;;;;7.50;2.87;;;25.20;78.10;;;;;;5141456;27;20450;-83
2022/06/12 12:54:51;;;;;;;7.07;2.10;;;25.20;76.90;;;;;;5140666;27;20495;-83
2022/06/12 12:57:22;;;;;;;2.93;1.70;;;25.30;76.40;;;;;;5122504;27;20854;-82
2022/06/12 12:59:52;;;;;;;3.20;2.10;;;25.30;76.70;;;;;;5121689;27;20449;-86
2022/06/12 13:02:28;;;;;;;3.00;1.90;;;25.30;75.50;;;;;;5140526;27;20816;-82
2022/06/12 13:04:59;;;;;;;4.53;1.90;;;25.30;75.20;;;;;;5122385;27;20469;-82
2022/06/12 13:07:58;;;;;;;4.20;2.07;;;25.30;74.90;;;;;;5139973;27;20423;-82
2022/06/12 13:10:51;;;;;;;3.07;1.60;;;25.40;74.50;;;;;;5109755;27;20455;-83
2022/06/12 13:13:50;;;;;;;3.73;2.00;;;25.50;74.20;;;;;;5120835;27;20453;-82
2022/06/12 13:16:26;;;;;;;6.20;2.23;;;25.50;74.20;;;;;;5127661;27;20561;-79
2022/06/12 13:19:21;;;;;;;5.03;2.33;;;25.60;74.40;;;;;;5140614;27;20453;-80
2022/06/12 13:22:03;;;;;;;3.60;2.17;;;25.60;73.90;;;;;;5120385;27;20514;-82
2022/06/12 13:24:35;;;;;;;5.67;1.60;;;25.60;73.90;;;;;;5120203;27;20438;-82
2022/06/12 13:27:20;;;;;;;4.53;2.17;;;25.60;73.90;;;;;;5118898;27;20924;-76
2022/06/12 13:29:50;;;;;;;2.83;1.90;;;25.60;73.80;;;;;;5137413;27;21006;-77
2022/06/12 13:32:25;;;;;;;4.93;2.90;;;25.70;73.70;;;;;;5139301;27;20585;-79
2022/06/12 13:35:29;;;;;;;4.37;2.20;;;25.70;73.80;;;;;;5120649;28;20456;-80
2022/06/12 13:38:03;;;;;;;2.53;1.60;;;25.60;73.10;;;;;;5120945;27;20454;-82